Time;durP1;ratioP1;P1;durP2;ratioP2;P2;SDS_P1;SDS_P2;PMS_P1;PMS_P2;Temp;Humidity;BMP_temperature;BMP_pressure;BME280_temperature;BME280_humidity;BME280_pressure;Samples;Min_cycle;Max_cycle;Signal;HPM_P1;HPM_P2
2023/06/06 00:03:10;;;;;;;1.13;0.77;;;;;;;;;;12728705;23;20036;-83
2023/06/06 00:08:15;;;;;;;3.45;1.00;;;;;;;;;;12736664;23;20025;-83
2023/06/06 00:13:18;;;;;;;1.60;0.98;;;;;;;;;;12730888;23;20025;-83
2023/06/06 00:18:22;;;;;;;1.33;1.00;;;;;;;;;;12727440;23;20025;-83
2023/06/06 00:23:27;;;;;;;1.38;1.10;;;;;;;;;;12737183;23;20026;-82
2023/06/06 00:28:30;;;;;;;1.73;1.10;;;;;;;;;;12735390;23;20025;-84
2023/06/06 00:33:33;;;;;;;1.98;1.00;;;;;;;;;;12726702;23;20372;-82
2023/06/06 00:38:38;;;;;;;0.80;0.80;;;;;;;;;;12736273;23;20025;-84
2023/06/06 00:43:41;;;;;;;1.00;0.70;;;;;;;;;;12736484;23;20021;-83
2023/06/06 00:48:45;;;;;;;1.48;1.00;;;;;;;;;;12753566;23;20072;-84
2023/06/06 00:53:51;;;;;;;0.80;0.80;;;;;;;;;;12723366;23;20028;-81
2023/06/06 00:58:57;;;;;;;1.63;1.30;;;;;;;;;;12724130;23;20029;-81
2023/06/06 01:04:02;;;;;;;2.40;0.90;;;;;;;;;;12748007;23;20056;-82
2023/06/06 01:09:08;;;;;;;1.67;0.85;;;;;;;;;;12730838;23;20044;-82
2023/06/06 01:14:19;;;;;;;2.60;0.88;;;;;;;;;;12722569;23;20029;-82
2023/06/06 01:19:29;;;;;;;1.98;1.30;;;;;;;;;;12747579;23;20029;-81
2023/06/06 01:24:36;;;;;;;1.17;0.98;;;;;;;;;;12723638;23;20061;-81
2023/06/06 01:29:39;;;;;;;2.20;1.00;;;;;;;;;;12723439;23;20021;-82
2023/06/06 01:34:49;;;;;;;1.40;0.90;;;;;;;;;;12748726;23;20021;-82
2023/06/06 01:39:57;;;;;;;0.93;0.80;;;;;;;;;;12748048;23;20025;-81
2023/06/06 01:45:03;;;;;;;1.13;0.93;;;;;;;;;;12721703;23;20032;-82
2023/06/06 01:50:09;;;;;;;1.92;1.10;;;;;;;;;;12740758;23;20035;-81
2023/06/06 01:55:14;;;;;;;1.33;1.00;;;;;;;;;;12722498;23;20021;-82
2023/06/06 02:00:19;;;;;;;1.40;1.10;;;;;;;;;;12722466;23;20026;-82
2023/06/06 02:05:23;;;;;;;;;;;;;;;;;;12728162;23;20032;-81
2023/06/06 02:10:28;;;;;;;1.80;1.17;;;;;;;;;;12728331;23;20304;-81
2023/06/06 02:15:32;;;;;;;1.52;1.00;;;;;;;;;;12723573;23;20053;-83
2023/06/06 02:20:35;;;;;;;2.92;1.10;;;;;;;;;;12723026;23;20030;-83
2023/06/06 02:25:40;;;;;;;1.80;1.20;;;;;;;;;;12723259;23;20045;-83
2023/06/06 02:30:43;;;;;;;2.33;1.23;;;;;;;;;;12725470;23;20033;-82
2023/06/06 02:35:46;;;;;;;3.63;1.00;;;;;;;;;;12720805;23;20017;-84
2023/06/06 02:40:51;;;;;;;1.30;0.75;;;;;;;;;;12742916;23;20025;-83
2023/06/06 02:45:55;;;;;;;2.65;1.15;;;;;;;;;;12722076;23;20084;-84
2023/06/06 02:50:59;;;;;;;1.88;1.08;;;;;;;;;;12721992;23;20634;-83
2023/06/06 02:56:04;;;;;;;1.40;1.05;;;;;;;;;;12721491;23;20028;-82
2023/06/06 03:01:09;;;;;;;1.98;1.10;;;;;;;;;;12723790;23;20025;-83
2023/06/06 03:06:15;;;;;;;1.23;1.00;;;;;;;;;;12748253;23;20025;-82
2023/06/06 03:11:20;;;;;;;1.30;1.15;;;;;;;;;;12728160;23;20040;-84
2023/06/06 03:16:26;;;;;;;1.15;0.90;;;;;;;;;;12728849;23;20208;-86
2023/06/06 03:21:29;;;;;;;1.88;1.13;;;;;;;;;;12728353;23;20053;-83
2023/06/06 03:26:34;;;;;;;2.35;0.90;;;;;;;;;;12751769;23;20029;-83
2023/06/06 03:31:38;;;;;;;1.97;1.30;;;;;;;;;;12726549;23;20029;-84
2023/06/06 03:36:42;;;;;;;2.50;1.40;;;;;;;;;;12726376;23;20026;-86
2023/06/06 03:41:48;;;;;;;1.25;1.05;;;;;;;;;;12727080;23;20085;-81
2023/06/06 03:46:51;;;;;;;1.42;1.10;;;;;;;;;;12723982;23;20033;-83
2023/06/06 03:51:55;;;;;;;1.77;1.27;;;;;;;;;;12726927;23;20032;-81
2023/06/06 03:57:01;;;;;;;1.10;0.93;;;;;;;;;;12725037;23;20077;-81
2023/06/06 04:02:05;;;;;;;1.65;1.20;;;;;;;;;;12751613;23;20040;-81
2023/06/06 04:07:09;;;;;;;1.13;1.00;;;;;;;;;;12750650;23;20105;-83
2023/06/06 04:12:14;;;;;;;2.17;1.20;;;;;;;;;;12727529;23;20021;-82
2023/06/06 04:17:19;;;;;;;1.97;1.07;;;;;;;;;;12750105;23;20026;-82
2023/06/06 04:22:23;;;;;;;1.98;1.20;;;;;;;;;;12746606;23;20095;-82
2023/06/06 04:27:28;;;;;;;1.73;1.38;;;;;;;;;;12720417;23;20120;-81
2023/06/06 04:32:31;;;;;;;1.40;1.00;;;;;;;;;;12748045;23;20030;-81
2023/06/06 04:37:37;;;;;;;2.53;1.20;;;;;;;;;;12721981;23;20052;-81
2023/06/06 04:42:42;;;;;;;1.30;0.90;;;;;;;;;;12746614;23;20677;-82
2023/06/06 04:47:45;;;;;;;1.63;1.00;;;;;;;;;;12744754;23;20017;-82
2023/06/06 04:52:48;;;;;;;1.50;1.10;;;;;;;;;;12745606;23;20025;-81
2023/06/06 04:57:55;;;;;;;1.30;1.17;;;;;;;;;;12719354;23;20025;-81
2023/06/06 05:02:58;;;;;;;1.92;1.30;;;;;;;;;;12744763;23;20309;-81
2023/06/06 05:08:02;;;;;;;1.42;1.17;;;;;;;;;;12718608;23;20481;-82
2023/06/06 05:13:07;;;;;;;2.67;1.00;;;;;;;;;;12720668;23;20089;-81
2023/06/06 05:18:10;;;;;;;1.67;1.00;;;;;;;;;;12720030;23;20036;-81
2023/06/06 05:23:13;;;;;;;1.50;0.90;;;;;;;;;;12719944;23;20025;-81
2023/06/06 05:28:18;;;;;;;3.33;1.30;;;;;;;;;;12751311;23;20044;-82
2023/06/06 05:33:21;;;;;;;0.90;0.80;;;;;;;;;;12724592;23;20361;-81
2023/06/06 05:38:26;;;;;;;1.25;0.95;;;;;;;;;;12724356;23;20013;-81
2023/06/06 05:43:31;;;;;;;2.40;1.15;;;;;;;;;;12728202;23;20037;-82
2023/06/06 05:48:34;;;;;;;3.22;0.90;;;;;;;;;;12727677;23;20013;-82
2023/06/06 05:53:44;;;;;;;1.92;0.90;;;;;;;;;;12749675;23;20499;-82
2023/06/06 05:58:49;;;;;;;2.75;0.95;;;;;;;;;;12726116;23;20017;-82
2023/06/06 06:03:53;;;;;;;1.42;0.80;;;;;;;;;;12723124;23;20378;-80
2023/06/06 06:08:57;;;;;;;1.50;0.75;;;;;;;;;;12730629;23;20021;-82
2023/06/06 06:14:02;;;;;;;1.20;1.00;;;;;;;;;;12748253;23;20671;-82
2023/06/06 06:19:05;;;;;;;2.65;1.00;;;;;;;;;;12723733;23;20022;-82
2023/06/06 06:24:09;;;;;;;1.52;1.13;;;;;;;;;;12723744;23;20049;-81
2023/06/06 06:29:14;;;;;;;1.35;1.10;;;;;;;;;;12723138;23;20556;-82
2023/06/06 06:34:17;;;;;;;1.45;1.08;;;;;;;;;;12727193;23;20021;-82
2023/06/06 06:39:20;;;;;;;1.90;1.05;;;;;;;;;;12725153;23;20138;-82
2023/06/06 06:44:25;;;;;;;2.47;1.58;;;;;;;;;;12721207;23;20025;-81
2023/06/06 06:49:28;;;;;;;4.10;1.63;;;;;;;;;;12724157;23;20454;-82
2023/06/06 06:54:35;;;;;;;1.63;1.08;;;;;;;;;;12721168;23;20029;-82
2023/06/06 06:59:41;;;;;;;1.08;0.98;;;;;;;;;;12724219;23;20449;-81
2023/06/06 07:04:44;;;;;;;2.78;1.20;;;;;;;;;;12746574;23;20056;-82
2023/06/06 07:09:48;;;;;;;0.80;0.77;;;;;;;;;;12721403;23;20025;-82
2023/06/06 07:14:52;;;;;;;2.72;0.88;;;;;;;;;;12720447;23;20076;-83
2023/06/06 07:19:56;;;;;;;4.72;1.40;;;;;;;;;;12722888;23;20072;-81
2023/06/06 07:24:59;;;;;;;1.35;0.95;;;;;;;;;;12720072;23;20040;-82
2023/06/06 07:30:06;;;;;;;1.83;0.80;;;;;;;;;;12720387;23;20017;-82
2023/06/06 07:35:11;;;;;;;2.67;0.85;;;;;;;;;;12722950;23;20017;-82
2023/06/06 07:40:16;;;;;;;1.30;1.10;;;;;;;;;;12723468;23;20048;-82
2023/06/06 07:45:21;;;;;;;2.60;1.10;;;;;;;;;;12721678;23;20453;-82
2023/06/06 07:50:24;;;;;;;1.20;0.85;;;;;;;;;;12720249;23;20017;-81
2023/06/06 07:55:30;;;;;;;2.10;1.00;;;;;;;;;;12722586;23;20052;-83
2023/06/06 08:00:35;;;;;;;2.05;1.08;;;;;;;;;;12724084;23;20401;-83
2023/06/06 08:05:38;;;;;;;2.50;1.45;;;;;;;;;;12724363;23;20387;-82
2023/06/06 08:10:42;;;;;;;3.42;1.95;;;;;;;;;;12724377;23;20022;-82
2023/06/06 08:15:46;;;;;;;3.53;1.55;;;;;;;;;;12748248;23;20022;-81
2023/06/06 08:20:50;;;;;;;1.50;1.05;;;;;;;;;;12727393;23;20021;-82
2023/06/06 08:25:55;;;;;;;6.18;2.10;;;;;;;;;;12725094;23;20026;-82
2023/06/06 09:15:10;;;;;;;1.45;1.15;;;;;;;;;;12781055;22;20016;-89
2023/06/06 09:20:17;;;;;;;1.10;0.80;;;;;;;;;;12783226;23;20355;-89
2023/06/06 09:25:23;;;;;;;0.63;0.60;;;;;;;;;;12806438;23;20397;-88
2023/06/06 09:30:29;;;;;;;1.30;1.00;;;;;;;;;;12819840;23;20103;-88
2023/06/06 09:35:34;;;;;;;1.65;0.95;;;;;;;;;;12819490;23;20032;-90
2023/06/06 09:40:45;;;;;;;1.98;1.10;;;;;;;;;;12819662;23;20112;-88
2023/06/06 09:45:51;;;;;;;2.55;1.23;;;;;;;;;;12822114;23;20337;-88
2023/06/06 09:50:55;;;;;;;1.52;1.35;;;;;;;;;;12844207;23;20363;-85
2023/06/06 09:56:03;;;;;;;1.85;1.30;;;;;;;;;;12842374;23;20028;-86
2023/06/06 10:01:09;;;;;;;1.80;1.40;;;;;;;;;;12817317;23;20016;-86
2023/06/06 10:06:12;;;;;;;1.70;1.05;;;;;;;;;;12843820;23;20094;-88
2023/06/06 10:11:20;;;;;;;0.85;0.82;;;;;;;;;;12818645;23;20020;-88
2023/06/06 10:16:28;;;;;;;2.53;1.60;;;;;;;;;;12815659;23;20392;-85
2023/06/06 10:21:33;;;;;;;5.15;1.63;;;;;;;;;;12843616;23;20108;-86
2023/06/06 10:26:43;;;;;;;1.90;1.40;;;;;;;;;;12840443;23;20095;-84
2023/06/06 10:31:54;;;;;;;1.73;1.25;;;;;;;;;;12816067;23;20347;-86
2023/06/06 10:37:15;;;;;;;1.83;1.10;;;;;;;;;;12814802;23;20028;-86
2023/06/06 10:42:18;;;;;;;2.42;1.40;;;;;;;;;;12842931;23;20032;-86
2023/06/06 10:47:32;;;;;;;1.63;1.20;;;;;;;;;;12840165;23;20484;-85
2023/06/06 10:52:41;;;;;;;1.30;1.05;;;;;;;;;;12840784;23;20025;-85
2023/06/06 10:57:55;;;;;;;1.30;1.02;;;;;;;;;;12840403;23;20028;-86
2023/06/06 11:03:05;;;;;;;1.60;0.93;;;;;;;;;;12843289;23;20028;-85
2023/06/06 11:08:09;;;;;;;1.58;1.15;;;;;;;;;;12843813;23;20035;-85
2023/06/06 11:13:26;;;;;;;1.55;1.15;;;;;;;;;;12841965;23;20021;-85
2023/06/06 11:18:43;;;;;;;1.48;1.30;;;;;;;;;;12815923;23;20021;-85
2023/06/06 11:23:47;;;;;;;2.00;1.15;;;;;;;;;;12842404;23;20135;-85
2023/06/06 11:28:51;;;;;;;2.00;1.23;;;;;;;;;;12842486;23;20440;-85
2023/06/06 11:34:05;;;;;;;1.48;1.30;;;;;;;;;;12846110;23;20025;-84
2023/06/06 11:39:11;;;;;;;1.88;1.30;;;;;;;;;;12845052;23;20309;-85
2023/06/06 11:44:16;;;;;;;1.15;1.00;;;;;;;;;;12818236;23;20352;-85
2023/06/06 11:49:23;;;;;;;3.00;1.02;;;;;;;;;;12819999;23;20074;-85
2023/06/06 11:54:27;;;;;;;1.88;1.50;;;;;;;;;;12819117;23;20035;-84
2023/06/06 11:59:34;;;;;;;2.72;1.35;;;;;;;;;;12819122;23;20028;-84
2023/06/06 12:04:47;;;;;;;;;;;;;;;;;;12845865;23;20016;-85
2023/06/06 12:09:58;;;;;;;1.63;0.90;;;;;;;;;;12819219;23;20250;-85
2023/06/06 12:15:02;;;;;;;1.58;1.10;;;;;;;;;;12844250;23;20352;-84
2023/06/06 12:20:10;;;;;;;1.83;1.33;;;;;;;;;;12819746;23;20021;-85
2023/06/06 12:25:24;;;;;;;2.33;1.25;;;;;;;;;;12846090;23;20021;-85
2023/06/06 12:30:31;;;;;;;1.23;1.00;;;;;;;;;;12845546;23;20021;-84
2023/06/06 12:35:36;;;;;;;1.52;1.20;;;;;;;;;;12846795;23;20036;-84
2023/06/06 12:40:40;;;;;;;2.05;1.25;;;;;;;;;;12819371;23;20074;-83
2023/06/06 12:45:43;;;;;;;1.50;1.05;;;;;;;;;;12843686;23;20024;-84
2023/06/06 12:50:49;;;;;;;1.80;1.08;;;;;;;;;;12818606;23;20016;-85
2023/06/06 12:55:52;;;;;;;1.35;1.10;;;;;;;;;;12843458;23;20095;-87
2023/06/06 13:00:56;;;;;;;1.42;1.00;;;;;;;;;;12844435;23;20047;-87
2023/06/06 13:06:01;;;;;;;1.85;1.20;;;;;;;;;;12818789;23;20021;-84
2023/06/06 13:11:05;;;;;;;1.33;1.10;;;;;;;;;;12842836;23;20024;-85
2023/06/06 13:16:09;;;;;;;1.85;1.35;;;;;;;;;;12861100;23;20032;-84
2023/06/06 13:21:13;;;;;;;1.40;1.00;;;;;;;;;;12817349;23;20028;-85
2023/06/06 13:26:17;;;;;;;2.20;1.30;;;;;;;;;;12816882;23;20460;-85
2023/06/06 13:31:20;;;;;;;1.98;1.30;;;;;;;;;;12816867;23;20020;-84
2023/06/06 13:36:25;;;;;;;1.33;1.17;;;;;;;;;;12840896;23;20024;-84
2023/06/06 13:41:28;;;;;;;1.90;1.40;;;;;;;;;;12817799;23;20020;-85
2023/06/06 13:46:32;;;;;;;1.52;1.13;;;;;;;;;;12816487;23;20028;-84
2023/06/06 13:51:42;;;;;;;1.92;1.10;;;;;;;;;;12841505;23;20020;-84
2023/06/06 13:56:48;;;;;;;1.60;1.05;;;;;;;;;;12837510;23;20021;-85
2023/06/06 14:01:52;;;;;;;1.67;1.30;;;;;;;;;;12806708;23;20052;-85
2023/06/06 14:06:57;;;;;;;1.58;1.17;;;;;;;;;;12858183;23;20367;-87
2023/06/06 14:12:01;;;;;;;1.55;1.27;;;;;;;;;;12818657;23;20467;-87
2023/06/06 14:17:04;;;;;;;2.00;1.00;;;;;;;;;;12843674;23;20044;-88
2023/06/06 14:22:24;;;;;;;1.85;1.00;;;;;;;;;;12818439;23;20024;-87
2023/06/06 14:27:30;;;;;;;2.13;1.60;;;;;;;;;;12818928;23;20699;-86
2023/06/06 14:32:35;;;;;;;1.83;1.40;;;;;;;;;;12841532;22;20027;-84
2023/06/06 14:37:39;;;;;;;2.15;1.17;;;;;;;;;;12872481;23;20028;-84
2023/06/06 14:42:43;;;;;;;;;;;;;;;;;;12884770;23;20026;-85
2023/06/06 14:47:46;;;;;;;1.77;1.20;;;;;;;;;;12883541;23;20305;-83
2023/06/06 14:52:51;;;;;;;1.45;1.25;;;;;;;;;;12887367;23;20020;-84
2023/06/06 14:57:54;;;;;;;1.65;1.23;;;;;;;;;;12886214;23;20020;-84
2023/06/06 15:02:58;;;;;;;1.73;0.80;;;;;;;;;;12889771;23;20023;-83
2023/06/06 15:08:07;;;;;;;3.20;1.63;;;;;;;;;;12888591;23;20024;-83
2023/06/06 15:13:10;;;;;;;1.98;1.25;;;;;;;;;;12925643;23;20464;-85
2023/06/06 15:18:13;;;;;;;1.52;1.30;;;;;;;;;;12879243;23;20028;-83
2023/06/06 15:23:18;;;;;;;3.38;1.38;;;;;;;;;;12921101;23;20097;-83
2023/06/06 15:28:22;;;;;;;2.58;1.55;;;;;;;;;;12902472;22;20027;-84
2023/06/06 15:33:25;;;;;;;3.45;1.67;;;;;;;;;;12907739;23;20030;-82
2023/06/06 15:38:30;;;;;;;2.70;1.35;;;;;;;;;;12882973;23;20055;-83
2023/06/06 15:43:33;;;;;;;1.92;1.30;;;;;;;;;;12883979;22;20030;-85
2023/06/06 15:48:37;;;;;;;1.60;1.30;;;;;;;;;;12881753;23;20032;-87
2023/06/06 15:53:41;;;;;;;1.80;1.38;;;;;;;;;;12908288;22;20066;-83
2023/06/06 15:58:46;;;;;;;1.20;1.10;;;;;;;;;;12877911;23;20394;-84
2023/06/06 16:03:56;;;;;;;1.52;1.23;;;;;;;;;;12878293;22;20297;-84
2023/06/06 16:09:01;;;;;;;0.85;0.85;;;;;;;;;;12882228;23;20103;-84
2023/06/06 16:14:04;;;;;;;1.65;1.30;;;;;;;;;;12878760;22;20016;-84
2023/06/06 16:19:09;;;;;;;1.40;1.10;;;;;;;;;;12909721;23;20110;-83
2023/06/06 16:24:13;;;;;;;5.47;1.50;;;;;;;;;;12880826;22;20016;-83
2023/06/06 16:29:17;;;;;;;2.47;1.27;;;;;;;;;;12883620;23;20103;-83
2023/06/06 16:34:20;;;;;;;1.95;1.10;;;;;;;;;;12910759;22;20069;-83
2023/06/06 16:39:25;;;;;;;1.90;1.20;;;;;;;;;;12884186;23;20765;-84
2023/06/06 16:44:29;;;;;;;3.83;1.10;;;;;;;;;;12913475;22;20229;-84
2023/06/06 16:49:32;;;;;;;1.92;1.55;;;;;;;;;;12884887;23;20047;-84
2023/06/06 16:54:37;;;;;;;2.08;1.10;;;;;;;;;;12911533;22;20019;-84
2023/06/06 16:59:41;;;;;;;2.80;1.30;;;;;;;;;;12885147;23;20467;-84
2023/06/06 17:04:44;;;;;;;10.23;2.08;;;;;;;;;;12883905;22;20035;-84
2023/06/06 17:09:49;;;;;;;3.65;1.48;;;;;;;;;;12914788;23;20032;-84
2023/06/06 17:14:52;;;;;;;3.88;1.52;;;;;;;;;;12912171;22;20333;-83
2023/06/06 17:19:55;;;;;;;2.47;1.33;;;;;;;;;;12911535;23;20024;-83
2023/06/06 17:25:09;;;;;;;3.95;1.00;;;;;;;;;;12911239;22;20111;-89
2023/06/06 17:30:13;;;;;;;1.20;0.93;;;;;;;;;;12884535;23;20028;-84
2023/06/06 17:35:17;;;;;;;1.35;0.90;;;;;;;;;;12909370;22;20016;-84
2023/06/06 17:40:22;;;;;;;1.55;0.85;;;;;;;;;;12868928;23;20030;-85
2023/06/06 17:45:26;;;;;;;1.47;0.73;;;;;;;;;;12882877;22;20016;-84
2023/06/06 17:50:32;;;;;;;1.10;1.00;;;;;;;;;;12909782;23;20020;-84
2023/06/06 17:55:38;;;;;;;1.83;1.00;;;;;;;;;;12882668;22;20017;-84
2023/06/06 18:00:42;;;;;;;1.58;0.98;;;;;;;;;;12928249;23;20016;-84
2023/06/06 18:05:45;;;;;;;1.13;0.68;;;;;;;;;;12881538;22;20024;-85
2023/06/06 18:10:51;;;;;;;7.55;1.25;;;;;;;;;;12907634;23;20085;-84
2023/06/06 18:15:54;;;;;;;1.85;0.88;;;;;;;;;;12877515;22;20030;-84
2023/06/06 18:20:57;;;;;;;3.53;0.70;;;;;;;;;;12879460;23;20725;-83
2023/06/06 18:26:02;;;;;;;3.05;0.80;;;;;;;;;;12878342;22;20078;-85
2023/06/06 18:31:06;;;;;;;1.48;1.13;;;;;;;;;;12877822;23;20740;-85
2023/06/06 18:36:12;;;;;;;3.15;0.90;;;;;;;;;;12908051;22;20355;-85
2023/06/06 18:41:17;;;;;;;3.08;1.10;;;;;;;;;;12903697;23;20379;-84
2023/06/06 18:46:20;;;;;;;3.10;0.90;;;;;;;;;;12880132;22;20027;-84
2023/06/06 18:51:25;;;;;;;2.05;0.90;;;;;;;;;;12856463;23;20068;-84
2023/06/06 18:56:30;;;;;;;1.35;0.90;;;;;;;;;;12864855;23;20020;-85
2023/06/06 19:01:34;;;;;;;1.45;1.00;;;;;;;;;;12878042;23;20031;-85
2023/06/06 19:06:38;;;;;;;1.10;0.90;;;;;;;;;;12885759;23;20020;-85
2023/06/06 19:11:43;;;;;;;1.00;0.70;;;;;;;;;;12888957;23;20111;-85
2023/06/06 19:16:46;;;;;;;0.98;0.85;;;;;;;;;;12913298;22;20024;-84
2023/06/06 19:21:49;;;;;;;2.72;1.00;;;;;;;;;;12887745;23;20024;-85
2023/06/06 19:26:54;;;;;;;1.25;0.90;;;;;;;;;;12885128;23;20091;-85
2023/06/06 19:31:58;;;;;;;1.88;0.85;;;;;;;;;;12909500;23;20070;-85
2023/06/06 19:37:01;;;;;;;1.65;0.90;;;;;;;;;;12885134;23;20051;-87
2023/06/06 19:42:13;;;;;;;1.13;0.85;;;;;;;;;;12885512;23;20039;-85
2023/06/06 19:47:16;;;;;;;1.63;0.77;;;;;;;;;;12910672;22;20020;-85
2023/06/06 19:52:20;;;;;;;1.52;0.98;;;;;;;;;;12889245;23;20059;-87
2023/06/06 19:57:25;;;;;;;1.30;1.10;;;;;;;;;;12914852;22;20082;-85
2023/06/06 20:02:29;;;;;;;2.33;1.30;;;;;;;;;;12889906;23;20016;-87
2023/06/06 20:07:32;;;;;;;2.30;1.08;;;;;;;;;;12891147;23;20036;-84
2023/06/06 20:12:37;;;;;;;3.45;1.10;;;;;;;;;;12886725;23;20409;-88
2023/06/06 20:17:40;;;;;;;2.23;1.17;;;;;;;;;;12916009;22;20024;-87
2023/06/06 20:22:45;;;;;;;2.03;1.10;;;;;;;;;;12890846;23;20076;-86
2023/06/06 20:27:51;;;;;;;1.73;1.00;;;;;;;;;;12889625;23;20399;-85
2023/06/06 20:32:55;;;;;;;2.50;1.05;;;;;;;;;;12877564;22;20028;-80
2023/06/06 20:37:58;;;;;;;2.25;1.13;;;;;;;;;;12926621;23;20494;-80
2023/06/06 20:43:03;;;;;;;1.88;1.00;;;;;;;;;;12889825;22;20533;-80
2023/06/06 20:48:14;;;;;;;1.73;1.17;;;;;;;;;;12889039;23;20035;-80
2023/06/06 20:53:18;;;;;;;3.40;1.20;;;;;;;;;;12884011;22;20025;-80
2023/06/06 20:58:27;;;;;;;1.50;1.05;;;;;;;;;;12921212;23;20337;-80
2023/06/06 21:03:30;;;;;;;1.30;1.20;;;;;;;;;;12920232;22;20024;-80
2023/06/06 21:08:46;;;;;;;5.43;1.15;;;;;;;;;;12912115;23;20519;-80
2023/06/06 21:13:53;;;;;;;1.42;1.20;;;;;;;;;;12906239;22;20476;-80
2023/06/06 21:18:59;;;;;;;1.58;1.05;;;;;;;;;;12884686;23;20083;-80
2023/06/06 21:24:03;;;;;;;1.92;0.88;;;;;;;;;;12918236;22;20017;-80
2023/06/06 21:29:08;;;;;;;1.27;1.10;;;;;;;;;;12915661;23;20028;-80
2023/06/06 21:34:12;;;;;;;0.95;0.85;;;;;;;;;;12885384;22;20354;-80
2023/06/06 21:39:16;;;;;;;2.15;1.20;;;;;;;;;;12916417;23;20082;-80
2023/06/06 21:44:21;;;;;;;1.27;0.90;;;;;;;;;;12916212;22;20129;-81
2023/06/06 21:49:24;;;;;;;3.17;1.20;;;;;;;;;;12911245;23;20082;-80
2023/06/06 21:54:28;;;;;;;1.60;1.00;;;;;;;;;;12885914;22;20023;-80
2023/06/06 21:59:33;;;;;;;1.73;1.02;;;;;;;;;;12911903;23;20078;-80
2023/06/06 22:04:36;;;;;;;2.35;1.05;;;;;;;;;;12914661;22;20462;-81
2023/06/06 22:09:40;;;;;;;3.13;1.25;;;;;;;;;;12883458;23;20116;-80
2023/06/06 22:14:46;;;;;;;2.42;1.45;;;;;;;;;;12891630;22;20038;-81
2023/06/06 22:19:53;;;;;;;2.22;1.20;;;;;;;;;;12898404;23;20028;-81
2023/06/06 22:24:56;;;;;;;4.03;1.88;;;;;;;;;;12926504;22;20016;-80
2023/06/06 22:30:08;;;;;;;3.92;2.05;;;;;;;;;;12914962;23;20104;-81
2023/06/06 22:35:12;;;;;;;3.28;2.03;;;;;;;;;;12886575;22;20018;-80
2023/06/06 22:40:15;;;;;;;4.97;2.72;;;;;;;;;;12911517;23;20470;-81
2023/06/06 22:45:21;;;;;;;7.32;3.17;;;;;;;;;;12910743;22;20078;-80
2023/06/06 22:50:24;;;;;;;7.05;2.80;;;;;;;;;;12912619;23;20028;-80
2023/06/06 22:55:28;;;;;;;6.32;2.65;;;;;;;;;;12932620;22;20015;-81
2023/06/06 23:00:36;;;;;;;6.80;2.97;;;;;;;;;;12932025;23;20252;-80
2023/06/06 23:05:39;;;;;;;6.82;3.10;;;;;;;;;;12886193;22;20051;-81
2023/06/06 23:10:43;;;;;;;7.53;3.30;;;;;;;;;;12885964;23;20018;-81
2023/06/06 23:15:48;;;;;;;6.00;2.95;;;;;;;;;;12884531;23;20020;-81
2023/06/06 23:20:51;;;;;;;6.35;2.50;;;;;;;;;;12884937;23;20020;-81
2023/06/06 23:25:55;;;;;;;4.38;1.95;;;;;;;;;;12886379;23;20024;-81
2023/06/06 23:31:00;;;;;;;4.90;2.47;;;;;;;;;;12889423;23;20055;-81
2023/06/06 23:36:05;;;;;;;4.55;2.60;;;;;;;;;;12916057;22;20035;-81
2023/06/06 23:41:09;;;;;;;3.20;2.00;;;;;;;;;;12933196;23;20027;-81
2023/06/06 23:46:14;;;;;;;4.07;2.20;;;;;;;;;;12861739;23;20119;-81
2023/06/06 23:51:17;;;;;;;4.72;2.38;;;;;;;;;;12876471;23;20485;-81
2023/06/06 23:56:21;;;;;;;4.63;2.20;;;;;;;;;;12916180;22;20020;-80
